sensor_id;sensor_type;location;lat;lon;timestamp;P1;durP1;ratioP1;P2;durP2;ratioP2
11711;SDS011;5912;51.034;6.984;2022-12-17T00:01:16;40.87;;;16.47;;
11711;SDS011;5912;51.034;6.984;2022-12-17T00:04:01;37.37;;;16.30;;
11711;SDS011;5912;51.034;6.984;2022-12-17T00:06:44;41.03;;;16.07;;
11711;SDS011;5912;51.034;6.984;2022-12-17T00:09:28;44.33;;;16.53;;
11711;SDS011;5912;51.034;6.984;2022-12-17T00:12:12;44.80;;;17.00;;
11711;SDS011;5912;51.034;6.984;2022-12-17T00:14:56;37.93;;;17.23;;
11711;SDS011;5912;51.034;6.984;2022-12-17T00:17:40;43.87;;;16.40;;
11711;SDS011;5912;51.034;6.984;2022-12-17T00:20:24;33.27;;;14.00;;
11711;SDS011;5912;51.034;6.984;2022-12-17T00:23:08;39.93;;;16.07;;
11711;SDS011;5912;51.034;6.984;2022-12-17T00:25:53;32.40;;;14.30;;
11711;SDS011;5912;51.034;6.984;2022-12-17T00:28:38;43.50;;;15.93;;
11711;SDS011;5912;51.034;6.984;2022-12-17T00:31:25;37.77;;;15.43;;
11711;SDS011;5912;51.034;6.984;2022-12-17T00:34:10;37.53;;;14.97;;
11711;SDS011;5912;51.034;6.984;2022-12-17T00:36:54;35.90;;;14.47;;
11711;SDS011;5912;51.034;6.984;2022-12-17T00:39:38;38.03;;;15.80;;
11711;SDS011;5912;51.034;6.984;2022-12-17T00:42:22;44.93;;;16.80;;
11711;SDS011;5912;51.034;6.984;2022-12-17T00:45:06;43.70;;;15.90;;
11711;SDS011;5912;51.034;6.984;2022-12-17T00:47:50;38.50;;;15.27;;
11711;SDS011;5912;51.034;6.984;2022-12-17T00:50:34;43.00;;;16.23;;
11711;SDS011;5912;51.034;6.984;2022-12-17T00:53:18;40.53;;;15.60;;
11711;SDS011;5912;51.034;6.984;2022-12-17T00:56:02;37.50;;;15.83;;
11711;SDS011;5912;51.034;6.984;2022-12-17T00:58:46;41.53;;;15.73;;
11711;SDS011;5912;51.034;6.984;2022-12-17T01:01:30;42.57;;;16.00;;
11711;SDS011;5912;51.034;6.984;2022-12-17T01:04:14;42.23;;;15.43;;
11711;SDS011;5912;51.034;6.984;2022-12-17T01:06:58;38.03;;;14.53;;
11711;SDS011;5912;51.034;6.984;2022-12-17T01:09:41;34.53;;;14.07;;
11711;SDS011;5912;51.034;6.984;2022-12-17T01:12:26;34.97;;;15.03;;
11711;SDS011;5912;51.034;6.984;2022-12-17T01:15:10;42.43;;;15.20;;
11711;SDS011;5912;51.034;6.984;2022-12-17T01:17:54;34.60;;;14.40;;
11711;SDS011;5912;51.034;6.984;2022-12-17T01:20:37;36.77;;;13.00;;
11711;SDS011;5912;51.034;6.984;2022-12-17T01:23:22;36.33;;;13.90;;
11711;SDS011;5912;51.034;6.984;2022-12-17T01:26:06;36.20;;;13.40;;
11711;SDS011;5912;51.034;6.984;2022-12-17T01:28:50;35.17;;;13.40;;
11711;SDS011;5912;51.034;6.984;2022-12-17T01:31:33;29.87;;;13.07;;
11711;SDS011;5912;51.034;6.984;2022-12-17T01:34:17;34.53;;;14.33;;
11711;SDS011;5912;51.034;6.984;2022-12-17T01:37:01;38.40;;;14.57;;
11711;SDS011;5912;51.034;6.984;2022-12-17T01:39:46;30.43;;;12.73;;
11711;SDS011;5912;51.034;6.984;2022-12-17T01:42:37;31.57;;;13.70;;
11711;SDS011;5912;51.034;6.984;2022-12-17T01:45:23;37.50;;;13.40;;
11711;SDS011;5912;51.034;6.984;2022-12-17T01:48:10;28.73;;;13.43;;
11711;SDS011;5912;51.034;6.984;2022-12-17T01:50:57;35.80;;;14.70;;
11711;SDS011;5912;51.034;6.984;2022-12-17T01:53:43;30.07;;;13.47;;
11711;SDS011;5912;51.034;6.984;2022-12-17T01:56:30;32.20;;;13.90;;
11711;SDS011;5912;51.034;6.984;2022-12-17T01:59:14;28.93;;;13.10;;
11711;SDS011;5912;51.034;6.984;2022-12-17T02:02:03;30.67;;;13.20;;
11711;SDS011;5912;51.034;6.984;2022-12-17T02:04:47;33.50;;;13.00;;
11711;SDS011;5912;51.034;6.984;2022-12-17T02:17:07;28.57;;;12.77;;
11711;SDS011;5912;51.034;6.984;2022-12-17T02:29:25;29.20;;;12.43;;
11711;SDS011;5912;51.034;6.984;2022-12-17T02:32:12;28.50;;;13.03;;
11711;SDS011;5912;51.034;6.984;2022-12-17T02:34:59;29.97;;;12.63;;
11711;SDS011;5912;51.034;6.984;2022-12-17T02:37:47;30.27;;;12.63;;
11711;SDS011;5912;51.034;6.984;2022-12-17T02:40:32;33.20;;;13.10;;
11711;SDS011;5912;51.034;6.984;2022-12-17T02:43:18;31.10;;;13.60;;
11711;SDS011;5912;51.034;6.984;2022-12-17T02:46:03;26.57;;;13.87;;
11711;SDS011;5912;51.034;6.984;2022-12-17T02:48:49;31.63;;;13.90;;
11711;SDS011;5912;51.034;6.984;2022-12-17T02:51:32;28.50;;;12.50;;
11711;SDS011;5912;51.034;6.984;2022-12-17T02:54:16;27.47;;;12.93;;
11711;SDS011;5912;51.034;6.984;2022-12-17T02:57:00;34.37;;;13.23;;
11711;SDS011;5912;51.034;6.984;2022-12-17T02:59:44;31.37;;;13.07;;
11711;SDS011;5912;51.034;6.984;2022-12-17T03:02:28;27.80;;;11.73;;
11711;SDS011;5912;51.034;6.984;2022-12-17T03:05:12;28.17;;;12.77;;
11711;SDS011;5912;51.034;6.984;2022-12-17T03:07:56;26.63;;;12.20;;
11711;SDS011;5912;51.034;6.984;2022-12-17T03:10:40;26.77;;;12.67;;
11711;SDS011;5912;51.034;6.984;2022-12-17T03:13:25;26.13;;;12.33;;
11711;SDS011;5912;51.034;6.984;2022-12-17T03:16:12;27.17;;;12.30;;
11711;SDS011;5912;51.034;6.984;2022-12-17T03:18:57;27.83;;;13.03;;
11711;SDS011;5912;51.034;6.984;2022-12-17T03:21:41;34.50;;;13.30;;
11711;SDS011;5912;51.034;6.984;2022-12-17T03:24:26;30.17;;;13.10;;
11711;SDS011;5912;51.034;6.984;2022-12-17T03:27:10;29.57;;;13.37;;
11711;SDS011;5912;51.034;6.984;2022-12-17T03:29:54;27.20;;;13.17;;
11711;SDS011;5912;51.034;6.984;2022-12-17T03:32:38;34.50;;;13.20;;
11711;SDS011;5912;51.034;6.984;2022-12-17T03:35:21;30.57;;;14.23;;
11711;SDS011;5912;51.034;6.984;2022-12-17T03:38:06;33.50;;;13.60;;
11711;SDS011;5912;51.034;6.984;2022-12-17T03:40:51;32.77;;;14.07;;
11711;SDS011;5912;51.034;6.984;2022-12-17T03:43:35;29.70;;;14.37;;
11711;SDS011;5912;51.034;6.984;2022-12-17T03:46:19;30.30;;;13.63;;
11711;SDS011;5912;51.034;6.984;2022-12-17T03:49:03;33.03;;;14.83;;
11711;SDS011;5912;51.034;6.984;2022-12-17T03:51:47;34.40;;;14.37;;
11711;SDS011;5912;51.034;6.984;2022-12-17T03:54:31;36.63;;;15.13;;
11711;SDS011;5912;51.034;6.984;2022-12-17T03:57:15;28.80;;;13.63;;
11711;SDS011;5912;51.034;6.984;2022-12-17T03:59:59;28.60;;;14.90;;
11711;SDS011;5912;51.034;6.984;2022-12-17T04:02:43;33.97;;;15.20;;
11711;SDS011;5912;51.034;6.984;2022-12-17T04:05:27;34.73;;;14.50;;
11711;SDS011;5912;51.034;6.984;2022-12-17T04:08:11;35.80;;;15.20;;
11711;SDS011;5912;51.034;6.984;2022-12-17T04:10:54;34.47;;;15.80;;
11711;SDS011;5912;51.034;6.984;2022-12-17T04:13:38;29.17;;;13.53;;
11711;SDS011;5912;51.034;6.984;2022-12-17T04:16:22;36.40;;;15.33;;
11711;SDS011;5912;51.034;6.984;2022-12-17T04:19:06;29.83;;;13.60;;
11711;SDS011;5912;51.034;6.984;2022-12-17T04:21:50;33.67;;;13.70;;
11711;SDS011;5912;51.034;6.984;2022-12-17T04:24:34;32.20;;;13.90;;
11711;SDS011;5912;51.034;6.984;2022-12-17T04:27:18;25.63;;;12.33;;
11711;SDS011;5912;51.034;6.984;2022-12-17T04:30:02;31.77;;;13.73;;
11711;SDS011;5912;51.034;6.984;2022-12-17T04:32:47;28.30;;;13.23;;
11711;SDS011;5912;51.034;6.984;2022-12-17T04:35:30;33.20;;;13.90;;
11711;SDS011;5912;51.034;6.984;2022-12-17T04:38:15;30.63;;;13.13;;
11711;SDS011;5912;51.034;6.984;2022-12-17T04:40:58;27.47;;;13.17;;
11711;SDS011;5912;51.034;6.984;2022-12-17T04:43:42;21.77;;;11.63;;
11711;SDS011;5912;51.034;6.984;2022-12-17T04:46:26;28.40;;;12.27;;
11711;SDS011;5912;51.034;6.984;2022-12-17T04:49:10;24.93;;;11.80;;
11711;SDS011;5912;51.034;6.984;2022-12-17T04:51:54;26.83;;;11.97;;
11711;SDS011;5912;51.034;6.984;2022-12-17T04:54:38;24.87;;;12.53;;
11711;SDS011;5912;51.034;6.984;2022-12-17T04:57:22;26.83;;;12.43;;
11711;SDS011;5912;51.034;6.984;2022-12-17T05:00:06;28.60;;;11.80;;
11711;SDS011;5912;51.034;6.984;2022-12-17T05:06:12;26.13;;;11.33;;
11711;SDS011;5912;51.034;6.984;2022-12-17T05:08:56;26.00;;;10.77;;
11711;SDS011;5912;51.034;6.984;2022-12-17T05:11:40;23.93;;;11.67;;
11711;SDS011;5912;51.034;6.984;2022-12-17T05:14:24;24.43;;;11.80;;
11711;SDS011;5912;51.034;6.984;2022-12-17T05:17:08;24.70;;;11.47;;
11711;SDS011;5912;51.034;6.984;2022-12-17T05:19:52;21.27;;;10.20;;
11711;SDS011;5912;51.034;6.984;2022-12-17T05:22:36;24.37;;;10.97;;
11711;SDS011;5912;51.034;6.984;2022-12-17T05:25:20;27.07;;;10.87;;
11711;SDS011;5912;51.034;6.984;2022-12-17T05:28:04;22.67;;;11.00;;
11711;SDS011;5912;51.034;6.984;2022-12-17T05:30:51;24.27;;;11.50;;
11711;SDS011;5912;51.034;6.984;2022-12-17T05:33:36;24.80;;;11.83;;
11711;SDS011;5912;51.034;6.984;2022-12-17T05:36:20;22.80;;;11.10;;
11711;SDS011;5912;51.034;6.984;2022-12-17T05:39:04;24.63;;;11.37;;
11711;SDS011;5912;51.034;6.984;2022-12-17T05:41:48;21.43;;;10.87;;
11711;SDS011;5912;51.034;6.984;2022-12-17T05:44:32;24.00;;;10.97;;
11711;SDS011;5912;51.034;6.984;2022-12-17T05:47:16;25.43;;;11.50;;
11711;SDS011;5912;51.034;6.984;2022-12-17T05:50:00;21.87;;;11.13;;
11711;SDS011;5912;51.034;6.984;2022-12-17T05:52:44;20.97;;;11.13;;
11711;SDS011;5912;51.034;6.984;2022-12-17T05:55:28;24.73;;;11.27;;
11711;SDS011;5912;51.034;6.984;2022-12-17T06:01:22;26.40;;;11.17;;
11711;SDS011;5912;51.034;6.984;2022-12-17T06:04:06;22.20;;;10.13;;
11711;SDS011;5912;51.034;6.984;2022-12-17T06:06:52;22.20;;;11.40;;
11711;SDS011;5912;51.034;6.984;2022-12-17T06:09:36;23.47;;;11.27;;
11711;SDS011;5912;51.034;6.984;2022-12-17T06:12:20;18.97;;;10.70;;
11711;SDS011;5912;51.034;6.984;2022-12-17T06:15:04;24.57;;;12.07;;
11711;SDS011;5912;51.034;6.984;2022-12-17T06:17:52;24.13;;;11.33;;
11711;SDS011;5912;51.034;6.984;2022-12-17T06:20:37;24.00;;;11.53;;
11711;SDS011;5912;51.034;6.984;2022-12-17T06:23:21;22.07;;;11.70;;
11711;SDS011;5912;51.034;6.984;2022-12-17T06:26:05;21.37;;;10.57;;
11711;SDS011;5912;51.034;6.984;2022-12-17T06:28:49;30.43;;;11.57;;
11711;SDS011;5912;51.034;6.984;2022-12-17T06:31:33;27.53;;;12.47;;
11711;SDS011;5912;51.034;6.984;2022-12-17T06:34:17;25.03;;;12.37;;
11711;SDS011;5912;51.034;6.984;2022-12-17T06:37:01;22.93;;;11.13;;
11711;SDS011;5912;51.034;6.984;2022-12-17T06:39:45;25.10;;;11.47;;
11711;SDS011;5912;51.034;6.984;2022-12-17T06:42:29;21.40;;;10.87;;
11711;SDS011;5912;51.034;6.984;2022-12-17T06:45:13;24.67;;;10.70;;
11711;SDS011;5912;51.034;6.984;2022-12-17T06:48:00;19.90;;;10.53;;
11711;SDS011;5912;51.034;6.984;2022-12-17T06:50:45;23.70;;;10.23;;
11711;SDS011;5912;51.034;6.984;2022-12-17T06:53:29;18.60;;;9.50;;
11711;SDS011;5912;51.034;6.984;2022-12-17T06:56:13;20.77;;;9.73;;
11711;SDS011;5912;51.034;6.984;2022-12-17T06:58:57;22.10;;;9.73;;
11711;SDS011;5912;51.034;6.984;2022-12-17T07:01:41;22.03;;;9.33;;
11711;SDS011;5912;51.034;6.984;2022-12-17T07:04:25;19.93;;;9.13;;
11711;SDS011;5912;51.034;6.984;2022-12-17T07:07:09;18.20;;;9.13;;
11711;SDS011;5912;51.034;6.984;2022-12-17T07:09:53;17.23;;;9.50;;
11711;SDS011;5912;51.034;6.984;2022-12-17T07:12:37;18.43;;;9.07;;
11711;SDS011;5912;51.034;6.984;2022-12-17T07:15:21;17.83;;;9.27;;
11711;SDS011;5912;51.034;6.984;2022-12-17T07:18:05;16.50;;;8.87;;
11711;SDS011;5912;51.034;6.984;2022-12-17T07:20:51;18.60;;;8.33;;
11711;SDS011;5912;51.034;6.984;2022-12-17T07:23:36;16.60;;;8.00;;
11711;SDS011;5912;51.034;6.984;2022-12-17T07:26:20;14.63;;;8.03;;
11711;SDS011;5912;51.034;6.984;2022-12-17T07:29:04;18.63;;;7.97;;
11711;SDS011;5912;51.034;6.984;2022-12-17T07:31:48;13.33;;;7.30;;
11711;SDS011;5912;51.034;6.984;2022-12-17T07:34:32;13.50;;;7.43;;
11711;SDS011;5912;51.034;6.984;2022-12-17T07:40:37;13.77;;;7.87;;
11711;SDS011;5912;51.034;6.984;2022-12-17T07:43:21;16.13;;;8.00;;
11711;SDS011;5912;51.034;6.984;2022-12-17T07:46:05;14.37;;;7.80;;
11711;SDS011;5912;51.034;6.984;2022-12-17T07:48:49;16.27;;;8.33;;
11711;SDS011;5912;51.034;6.984;2022-12-17T07:51:33;14.93;;;7.97;;
11711;SDS011;5912;51.034;6.984;2022-12-17T07:54:17;13.70;;;8.37;;
11711;SDS011;5912;51.034;6.984;2022-12-17T07:57:01;14.73;;;8.07;;
11711;SDS011;5912;51.034;6.984;2022-12-17T07:59:45;14.70;;;8.53;;
11711;SDS011;5912;51.034;6.984;2022-12-17T08:02:29;14.87;;;8.60;;
11711;SDS011;5912;51.034;6.984;2022-12-17T08:05:13;17.57;;;8.50;;
11711;SDS011;5912;51.034;6.984;2022-12-17T08:07:57;18.67;;;9.33;;
11711;SDS011;5912;51.034;6.984;2022-12-17T08:10:41;14.73;;;8.23;;
11711;SDS011;5912;51.034;6.984;2022-12-17T08:13:25;15.20;;;8.70;;
11711;SDS011;5912;51.034;6.984;2022-12-17T08:16:09;16.67;;;8.73;;
11711;SDS011;5912;51.034;6.984;2022-12-17T08:18:53;18.27;;;8.63;;
11711;SDS011;5912;51.034;6.984;2022-12-17T08:21:37;15.60;;;8.87;;
11711;SDS011;5912;51.034;6.984;2022-12-17T08:24:20;16.23;;;8.13;;
11711;SDS011;5912;51.034;6.984;2022-12-17T08:30:26;14.73;;;8.10;;
11711;SDS011;5912;51.034;6.984;2022-12-17T08:33:10;16.63;;;8.50;;
11711;SDS011;5912;51.034;6.984;2022-12-17T08:35:55;18.10;;;8.93;;
11711;SDS011;5912;51.034;6.984;2022-12-17T08:38:40;18.03;;;8.77;;
11711;SDS011;5912;51.034;6.984;2022-12-17T08:41:24;16.67;;;8.63;;
11711;SDS011;5912;51.034;6.984;2022-12-17T08:44:08;21.10;;;9.30;;
11711;SDS011;5912;51.034;6.984;2022-12-17T08:46:52;13.00;;;7.97;;
11711;SDS011;5912;51.034;6.984;2022-12-17T08:49:36;17.13;;;8.30;;
11711;SDS011;5912;51.034;6.984;2022-12-17T08:52:20;15.33;;;8.37;;
11711;SDS011;5912;51.034;6.984;2022-12-17T08:55:04;13.03;;;7.83;;
11711;SDS011;5912;51.034;6.984;2022-12-17T08:57:55;15.90;;;8.33;;
11711;SDS011;5912;51.034;6.984;2022-12-17T09:00:41;15.77;;;8.33;;
11711;SDS011;5912;51.034;6.984;2022-12-17T09:03:26;16.60;;;8.40;;
11711;SDS011;5912;51.034;6.984;2022-12-17T09:06:10;14.70;;;8.17;;
11711;SDS011;5912;51.034;6.984;2022-12-17T09:08:54;14.27;;;7.97;;
11711;SDS011;5912;51.034;6.984;2022-12-17T09:11:38;13.73;;;8.07;;
11711;SDS011;5912;51.034;6.984;2022-12-17T09:14:23;14.33;;;7.93;;
11711;SDS011;5912;51.034;6.984;2022-12-17T09:17:07;16.80;;;8.93;;
11711;SDS011;5912;51.034;6.984;2022-12-17T09:19:51;18.17;;;7.90;;
11711;SDS011;5912;51.034;6.984;2022-12-17T09:25:57;15.23;;;8.07;;
11711;SDS011;5912;51.034;6.984;2022-12-17T09:28:41;16.10;;;8.07;;
11711;SDS011;5912;51.034;6.984;2022-12-17T09:31:25;13.37;;;7.80;;
11711;SDS011;5912;51.034;6.984;2022-12-17T09:34:09;13.47;;;7.77;;
11711;SDS011;5912;51.034;6.984;2022-12-17T09:36:53;15.10;;;7.37;;
11711;SDS011;5912;51.034;6.984;2022-12-17T09:39:37;15.87;;;7.93;;
11711;SDS011;5912;51.034;6.984;2022-12-17T09:42:32;14.67;;;7.93;;
11711;SDS011;5912;51.034;6.984;2022-12-17T09:45:31;13.60;;;7.33;;
11711;SDS011;5912;51.034;6.984;2022-12-17T09:51:28;13.03;;;7.53;;
11711;SDS011;5912;51.034;6.984;2022-12-17T09:54:24;14.33;;;7.73;;
11711;SDS011;5912;51.034;6.984;2022-12-17T09:57:16;12.47;;;7.60;;
11711;SDS011;5912;51.034;6.984;2022-12-17T10:03:09;11.77;;;7.20;;
11711;SDS011;5912;51.034;6.984;2022-12-17T10:05:55;14.23;;;8.07;;
11711;SDS011;5912;51.034;6.984;2022-12-17T10:08:43;12.30;;;7.73;;
11711;SDS011;5912;51.034;6.984;2022-12-17T10:11:28;13.53;;;7.83;;
11711;SDS011;5912;51.034;6.984;2022-12-17T10:14:19;13.77;;;8.20;;
11711;SDS011;5912;51.034;6.984;2022-12-17T10:17:16;11.83;;;7.67;;
11711;SDS011;5912;51.034;6.984;2022-12-17T10:20:00;12.67;;;7.33;;
11711;SDS011;5912;51.034;6.984;2022-12-17T10:22:46;13.63;;;7.60;;
11711;SDS011;5912;51.034;6.984;2022-12-17T10:25:32;13.77;;;7.70;;
11711;SDS011;5912;51.034;6.984;2022-12-17T10:28:18;12.13;;;7.40;;
11711;SDS011;5912;51.034;6.984;2022-12-17T10:31:20;14.20;;;7.50;;
11711;SDS011;5912;51.034;6.984;2022-12-17T10:34:05;10.40;;;6.63;;
11711;SDS011;5912;51.034;6.984;2022-12-17T10:36:51;13.13;;;7.87;;
11711;SDS011;5912;51.034;6.984;2022-12-17T10:39:36;12.80;;;7.57;;
11711;SDS011;5912;51.034;6.984;2022-12-17T10:42:28;14.03;;;8.27;;
11711;SDS011;5912;51.034;6.984;2022-12-17T10:45:21;13.13;;;7.43;;
11711;SDS011;5912;51.034;6.984;2022-12-17T10:48:23;12.77;;;7.40;;
11711;SDS011;5912;51.034;6.984;2022-12-17T10:54:04;13.90;;;7.80;;
11711;SDS011;5912;51.034;6.984;2022-12-17T10:57:00;12.23;;;7.77;;
11711;SDS011;5912;51.034;6.984;2022-12-17T11:02:59;12.37;;;7.47;;
11711;SDS011;5912;51.034;6.984;2022-12-17T11:05:44;14.03;;;7.20;;
11711;SDS011;5912;51.034;6.984;2022-12-17T11:08:30;12.47;;;7.53;;
11711;SDS011;5912;51.034;6.984;2022-12-17T11:11:14;11.60;;;7.43;;
11711;SDS011;5912;51.034;6.984;2022-12-17T11:13:59;11.27;;;7.50;;
11711;SDS011;5912;51.034;6.984;2022-12-17T11:16:48;13.23;;;7.87;;
11711;SDS011;5912;51.034;6.984;2022-12-17T11:19:47;12.97;;;7.83;;
11711;SDS011;5912;51.034;6.984;2022-12-17T11:22:44;14.00;;;8.00;;
11711;SDS011;5912;51.034;6.984;2022-12-17T11:28:57;14.50;;;7.97;;
11711;SDS011;5912;51.034;6.984;2022-12-17T11:31:46;12.40;;;7.80;;
11711;SDS011;5912;51.034;6.984;2022-12-17T11:47:25;12.37;;;7.87;;
11711;SDS011;5912;51.034;6.984;2022-12-17T11:50:27;12.17;;;7.77;;
11711;SDS011;5912;51.034;6.984;2022-12-17T11:53:44;12.87;;;8.00;;
11711;SDS011;5912;51.034;6.984;2022-12-17T11:56:31;13.20;;;8.17;;
11711;SDS011;5912;51.034;6.984;2022-12-17T11:59:40;11.03;;;7.33;;
11711;SDS011;5912;51.034;6.984;2022-12-17T12:02:50;12.50;;;8.13;;
11711;SDS011;5912;51.034;6.984;2022-12-17T12:05:48;12.13;;;8.53;;
11711;SDS011;5912;51.034;6.984;2022-12-17T12:11:50;12.03;;;7.50;;
11711;SDS011;5912;51.034;6.984;2022-12-17T12:14:50;9.93;;;7.30;;
11711;SDS011;5912;51.034;6.984;2022-12-17T12:21:15;12.47;;;7.57;;
11711;SDS011;5912;51.034;6.984;2022-12-17T12:24:15;17.13;;;8.37;;
11711;SDS011;5912;51.034;6.984;2022-12-17T12:30:04;13.00;;;7.93;;
11711;SDS011;5912;51.034;6.984;2022-12-17T12:33:44;13.83;;;8.00;;
11711;SDS011;5912;51.034;6.984;2022-12-17T12:36:07;13.63;;;8.50;;
11711;SDS011;5912;51.034;6.984;2022-12-17T12:38:54;13.27;;;8.20;;
11711;SDS011;5912;51.034;6.984;2022-12-17T12:41:54;13.50;;;8.53;;
11711;SDS011;5912;51.034;6.984;2022-12-17T12:48:54;15.10;;;8.37;;
11711;SDS011;5912;51.034;6.984;2022-12-17T12:51:43;13.00;;;8.20;;
11711;SDS011;5912;51.034;6.984;2022-12-17T12:54:31;16.17;;;8.67;;
11711;SDS011;5912;51.034;6.984;2022-12-17T12:57:35;16.20;;;8.67;;
11711;SDS011;5912;51.034;6.984;2022-12-17T13:00:38;14.07;;;8.37;;
11711;SDS011;5912;51.034;6.984;2022-12-17T13:03:36;16.80;;;9.30;;
11711;SDS011;5912;51.034;6.984;2022-12-17T13:11:45;15.03;;;8.57;;
11711;SDS011;5912;51.034;6.984;2022-12-17T13:17:04;14.17;;;8.60;;
11711;SDS011;5912;51.034;6.984;2022-12-17T13:25:35;14.73;;;8.73;;
11711;SDS011;5912;51.034;6.984;2022-12-17T13:28:01;15.10;;;9.13;;
11711;SDS011;5912;51.034;6.984;2022-12-17T13:36:25;12.37;;;8.90;;
11711;SDS011;5912;51.034;6.984;2022-12-17T13:41:57;13.40;;;8.27;;
11711;SDS011;5912;51.034;6.984;2022-12-17T13:44:23;11.60;;;8.10;;
11711;SDS011;5912;51.034;6.984;2022-12-17T13:46:52;11.30;;;8.20;;
11711;SDS011;5912;51.034;6.984;2022-12-17T13:49:19;13.23;;;7.83;;
11711;SDS011;5912;51.034;6.984;2022-12-17T13:51:47;11.83;;;8.17;;
11711;SDS011;5912;51.034;6.984;2022-12-17T13:54:16;12.00;;;8.27;;
11711;SDS011;5912;51.034;6.984;2022-12-17T13:59:47;11.33;;;7.70;;
11711;SDS011;5912;51.034;6.984;2022-12-17T14:02:25;12.20;;;8.63;;
11711;SDS011;5912;51.034;6.984;2022-12-17T14:04:59;16.67;;;8.33;;
11711;SDS011;5912;51.034;6.984;2022-12-17T14:07:26;11.70;;;8.33;;
11711;SDS011;5912;51.034;6.984;2022-12-17T14:09:52;13.13;;;8.20;;
11711;SDS011;5912;51.034;6.984;2022-12-17T14:12:19;12.97;;;8.23;;
11711;SDS011;5912;51.034;6.984;2022-12-17T14:14:48;12.83;;;8.10;;
11711;SDS011;5912;51.034;6.984;2022-12-17T14:17:21;13.10;;;8.20;;
11711;SDS011;5912;51.034;6.984;2022-12-17T14:19:57;13.87;;;8.20;;
11711;SDS011;5912;51.034;6.984;2022-12-17T14:22:31;15.87;;;8.67;;
11711;SDS011;5912;51.034;6.984;2022-12-17T14:25:00;14.17;;;8.47;;
11711;SDS011;5912;51.034;6.984;2022-12-17T14:27:29;12.23;;;8.40;;
11711;SDS011;5912;51.034;6.984;2022-12-17T14:30:00;13.60;;;8.23;;
11711;SDS011;5912;51.034;6.984;2022-12-17T14:32:33;14.80;;;8.37;;
11711;SDS011;5912;51.034;6.984;2022-12-17T14:35:00;16.60;;;8.67;;
11711;SDS011;5912;51.034;6.984;2022-12-17T14:37:25;14.87;;;8.90;;
11711;SDS011;5912;51.034;6.984;2022-12-17T14:39:53;13.10;;;8.30;;
11711;SDS011;5912;51.034;6.984;2022-12-17T14:42:26;13.27;;;8.70;;
11711;SDS011;5912;51.034;6.984;2022-12-17T14:45:36;12.97;;;8.03;;
11711;SDS011;5912;51.034;6.984;2022-12-17T14:47:57;13.90;;;7.97;;
11711;SDS011;5912;51.034;6.984;2022-12-17T14:52:52;12.80;;;8.50;;
11711;SDS011;5912;51.034;6.984;2022-12-17T14:55:30;13.83;;;8.60;;
11711;SDS011;5912;51.034;6.984;2022-12-17T14:58:25;13.30;;;7.90;;
11711;SDS011;5912;51.034;6.984;2022-12-17T15:03:27;17.40;;;9.90;;
11711;SDS011;5912;51.034;6.984;2022-12-17T15:05:57;17.07;;;10.53;;
11711;SDS011;5912;51.034;6.984;2022-12-17T15:08:25;18.30;;;10.47;;
11711;SDS011;5912;51.034;6.984;2022-12-17T15:10:53;16.23;;;9.10;;
11711;SDS011;5912;51.034;6.984;2022-12-17T15:13:18;14.90;;;9.57;;
11711;SDS011;5912;51.034;6.984;2022-12-17T15:15:44;12.93;;;8.57;;
11711;SDS011;5912;51.034;6.984;2022-12-17T15:18:09;15.03;;;9.10;;
11711;SDS011;5912;51.034;6.984;2022-12-17T15:20:35;15.20;;;9.53;;
11711;SDS011;5912;51.034;6.984;2022-12-17T15:23:00;14.43;;;8.90;;
11711;SDS011;5912;51.034;6.984;2022-12-17T15:25:26;14.97;;;9.20;;
11711;SDS011;5912;51.034;6.984;2022-12-17T15:27:51;14.30;;;8.80;;
11711;SDS011;5912;51.034;6.984;2022-12-17T15:30:16;12.13;;;8.33;;
11711;SDS011;5912;51.034;6.984;2022-12-17T15:32:42;14.70;;;9.23;;
11711;SDS011;5912;51.034;6.984;2022-12-17T15:35:09;13.60;;;8.30;;
11711;SDS011;5912;51.034;6.984;2022-12-17T15:37:36;14.03;;;8.77;;
11711;SDS011;5912;51.034;6.984;2022-12-17T15:40:02;14.77;;;9.10;;
11711;SDS011;5912;51.034;6.984;2022-12-17T15:42:28;10.90;;;7.73;;
11711;SDS011;5912;51.034;6.984;2022-12-17T15:45:12;16.73;;;10.47;;
11711;SDS011;5912;51.034;6.984;2022-12-17T15:47:37;19.20;;;10.97;;
11711;SDS011;5912;51.034;6.984;2022-12-17T15:50:03;15.97;;;9.20;;
11711;SDS011;5912;51.034;6.984;2022-12-17T15:52:29;13.83;;;8.97;;
11711;SDS011;5912;51.034;6.984;2022-12-17T15:54:54;15.37;;;9.43;;
11711;SDS011;5912;51.034;6.984;2022-12-17T15:57:20;15.87;;;9.40;;
11711;SDS011;5912;51.034;6.984;2022-12-17T15:59:45;14.30;;;9.30;;
11711;SDS011;5912;51.034;6.984;2022-12-17T16:02:10;15.47;;;9.43;;
11711;SDS011;5912;51.034;6.984;2022-12-17T16:04:36;18.57;;;10.87;;
11711;SDS011;5912;51.034;6.984;2022-12-17T16:07:02;17.10;;;9.70;;
11711;SDS011;5912;51.034;6.984;2022-12-17T16:09:28;15.73;;;10.67;;
11711;SDS011;5912;51.034;6.984;2022-12-17T16:11:53;17.47;;;10.17;;
11711;SDS011;5912;51.034;6.984;2022-12-17T16:14:19;16.27;;;9.87;;
11711;SDS011;5912;51.034;6.984;2022-12-17T16:16:44;17.47;;;10.57;;
11711;SDS011;5912;51.034;6.984;2022-12-17T16:19:10;15.53;;;10.30;;
11711;SDS011;5912;51.034;6.984;2022-12-17T16:21:35;17.10;;;10.63;;
11711;SDS011;5912;51.034;6.984;2022-12-17T16:24:00;16.43;;;9.93;;
11711;SDS011;5912;51.034;6.984;2022-12-17T16:26:25;19.43;;;11.27;;
11711;SDS011;5912;51.034;6.984;2022-12-17T16:28:51;18.50;;;11.20;;
11711;SDS011;5912;51.034;6.984;2022-12-17T16:31:16;16.83;;;11.20;;
11711;SDS011;5912;51.034;6.984;2022-12-17T16:33:42;19.07;;;12.73;;
11711;SDS011;5912;51.034;6.984;2022-12-17T16:36:10;21.70;;;12.87;;
11711;SDS011;5912;51.034;6.984;2022-12-17T16:38:47;17.90;;;11.03;;
11711;SDS011;5912;51.034;6.984;2022-12-17T16:41:14;17.07;;;11.20;;
11711;SDS011;5912;51.034;6.984;2022-12-17T16:43:40;18.73;;;12.57;;
11711;SDS011;5912;51.034;6.984;2022-12-17T16:48:50;14.53;;;9.33;;
11711;SDS011;5912;51.034;6.984;2022-12-17T16:51:16;14.97;;;9.47;;
11711;SDS011;5912;51.034;6.984;2022-12-17T16:53:43;14.80;;;10.40;;
11711;SDS011;5912;51.034;6.984;2022-12-17T16:56:21;16.50;;;10.30;;
11711;SDS011;5912;51.034;6.984;2022-12-17T16:58:48;15.73;;;9.73;;
11711;SDS011;5912;51.034;6.984;2022-12-17T17:01:18;16.10;;;9.73;;
11711;SDS011;5912;51.034;6.984;2022-12-17T17:03:53;14.90;;;10.43;;
11711;SDS011;5912;51.034;6.984;2022-12-17T17:06:19;14.70;;;9.00;;
11711;SDS011;5912;51.034;6.984;2022-12-17T17:08:44;12.10;;;8.53;;
11711;SDS011;5912;51.034;6.984;2022-12-17T17:11:12;16.10;;;10.30;;
11711;SDS011;5912;51.034;6.984;2022-12-17T17:13:39;14.13;;;8.73;;
11711;SDS011;5912;51.034;6.984;2022-12-17T17:16:05;14.03;;;9.23;;
11711;SDS011;5912;51.034;6.984;2022-12-17T17:18:32;13.27;;;9.30;;
11711;SDS011;5912;51.034;6.984;2022-12-17T17:23:51;14.90;;;9.77;;
11711;SDS011;5912;51.034;6.984;2022-12-17T17:26:20;15.87;;;10.80;;
11711;SDS011;5912;51.034;6.984;2022-12-17T17:28:45;16.37;;;9.70;;
11711;SDS011;5912;51.034;6.984;2022-12-17T17:31:12;13.03;;;9.03;;
11711;SDS011;5912;51.034;6.984;2022-12-17T17:33:48;14.40;;;9.67;;
11711;SDS011;5912;51.034;6.984;2022-12-17T17:36:19;16.43;;;10.20;;
11711;SDS011;5912;51.034;6.984;2022-12-17T17:38:46;15.43;;;10.17;;
11711;SDS011;5912;51.034;6.984;2022-12-17T17:41:14;15.30;;;11.20;;
11711;SDS011;5912;51.034;6.984;2022-12-17T17:43:42;14.43;;;9.53;;
11711;SDS011;5912;51.034;6.984;2022-12-17T17:46:09;14.47;;;9.17;;
11711;SDS011;5912;51.034;6.984;2022-12-17T17:48:39;17.20;;;9.80;;
11711;SDS011;5912;51.034;6.984;2022-12-17T17:51:10;15.10;;;10.30;;
11711;SDS011;5912;51.034;6.984;2022-12-17T17:53:39;16.87;;;10.57;;
11711;SDS011;5912;51.034;6.984;2022-12-17T17:56:07;15.20;;;9.83;;
11711;SDS011;5912;51.034;6.984;2022-12-17T17:58:39;15.37;;;10.00;;